Startpagina
METAR-TAF:

METAR-TAF

Vliegvelden :

Funafuti, Tuvalu

breedte: 08-31S, lengte: 179-13E, hoogte: 1 m

Actueel weer

Dit bericht is 53 minuten geleden gemaakt, om 21:00 UTC
Wind 11 kt uit het oostnoordoosten
Temperatuur 30°C
Vochtigheid 79%
Druk 1009 hPa
Zicht 10 km of meer
Weinig wolken op 1900 ft

METAR: NGFU 162100Z 07011KT 9999 FEW019 30/26 Q1009

Tijdstip: 09:53 (21:53 UTC)

Verwachting

Dit bericht is 4 uur en het 53 minuten geleden gemaakt, om 17:00 UTC
Verwachting geldig van 16 om 18 UTC tot 17 om 18 UTC
Wind 9 kt uit het oosten
Zicht 10 km of meer
Verspreide wolken op 1800 ft
Verspreide wolken op 10000 ft
lichte regenbuien
Kans 30% :
Tijdelijke
van 17 om 00 UTC tot 17 om 06 UTC
Gebroken wolken op 1500 ft
regenbuien

TAF: NGFU 161700Z 1618/1718 10009KT 9999 -SHRA SCT018 SCT100 PROB30 TEMPO 1700/1706 S000 SHRA BKN015

Waarnemingen en weersverwachtingen van meer dan 4000 vliegvelden (METAR en TAF).

De beschikbare stations zijn de gele en rode punten op de kaart.

Ga met uw muis naar het station om de naam te zien.

Klik dan om waarnemingen en weersverwachtingen te zien.

kaart wijzigen: klik op de groene knoppen met een zwart kruis om in te zoomen, op de groene knop met een streepje om uit te zoomen of op de groene pijlen voor aangrenzende kaarten.


METAR-TAF: